Bookmark and Share
Track history (hours):
 

MSC Gina

Last reported at 2014-Apr-19 13:04 UTC. Time now 2014-Apr-20 08:47 UTC.
Position N 38°27' E 015°54'.

Length 259 m; draft 10.8 m.

Type: Ship (hazmat cat A). MMSI: 357542000.

NotesDate/timePositionNaut miles runAvg speedWind from/ knotsBaromVisibWave heightAir tempDewpointWater temp
2014-Apr-19 13:04N 38°27' E 015°54'13 0.6
2014-Apr-18 14:13N 38°24' E 015°38'1219.0
2014-Apr-18 13:33N 38°22' E 015°22'55717.3
2014-Apr-17 05:24N 37°09' E 003°43'5618.5
2014-Apr-17 02:22N 36°58' E 002°34'1718.6
2014-Apr-17 01:27N 36°55' E 002°13'1718.6
2014-Apr-17 00:33N 36°52' E 001°53'5818.7
2014-Apr-16 21:28N 36°40' E 000°42'2618.6
2014-Apr-16 20:05N 36°34' E 000°11'6518.4
2014-Apr-16 16:32N 36°22' W 001°09'4018.6
2014-Apr-16 14:23N 36°15' W 001°58'13915.3
2014-Apr-16 05:21N 36°03' W 004°49'1316.1
2014-Apr-16 04:33N 36°01' W 005°04'1817.9
2014-Apr-16 03:33N 35°58' W 005°26'1616.1
2014-Apr-16 02:33N 35°54' W 005°46'  
2014-Apr-13 20:33N 39°01' W 025°19'7618.3
2014-Apr-13 16:23N 39°17' W 026°55'1619.0
2014-Apr-13 15:33N 39°20' W 027°15'1918.8
2014-Apr-13 14:33N 39°24' W 027°38'1918.8
2014-Apr-13 13:33N 39°28' W 028°02'1918.5
2014-Apr-13 12:33N 39°32' W 028°26'1918.8
2014-Apr-13 11:33N 39°36' W 028°49'1918.6
2014-Apr-13 10:33N 39°40' W 029°13'1918.8
2014-Apr-13 09:33N 39°44' W 029°37'2219.0
2014-Apr-13 08:25N 39°49' W 030°04'  

Dump ship's entire track history

sailing weather and tide predictions

MSC Gina — 3FLY9 — position and weather